Time;durP1;ratioP1;P1;durP2;ratioP2;P2;SDS_P1;SDS_P2;PMS_P1;PMS_P2;Temp;Humidity;BMP_temperature;BMP_pressure;BME280_temperature;BME280_humidity;BME280_pressure;Samples;Min_cycle;Max_cycle;Signal;HPM_P1;HPM_P2
2022/03/17 00:01:34;;;;;;;;;;;14.60;53.60;;;;;;5094326;28;19928;-67
2022/03/17 00:04:00;;;;;;;;;;;14.70;53.70;;;;;;5094090;28;19930;-68
2022/03/17 00:06:28;;;;;;;;;;;14.60;53.60;;;;;;5093760;28;19930;-68
2022/03/17 00:08:57;;;;;;;;;;;14.60;54.20;;;;;;5093867;28;20419;-68
2022/03/17 00:11:24;;;;;;;;;;;14.60;53.70;;;;;;5076043;28;19931;-67
2022/03/17 00:13:50;;;;;;;;;;;14.60;53.70;;;;;;5076033;28;20373;-67
2022/03/17 00:16:17;;;;;;;;;;;14.60;53.70;;;;;;5093814;28;20408;-68
2022/03/17 00:18:43;;;;;;;;;;;14.60;53.70;;;;;;5093876;28;20402;-67
2022/03/17 00:21:10;;;;;;;;;;;14.50;53.60;;;;;;5093757;28;20311;-67
2022/03/17 00:23:38;;;;;;;;;;;14.60;53.70;;;;;;5093789;28;19924;-67
2022/03/17 00:26:04;;;;;;;;;;;14.50;53.70;;;;;;5093898;28;19928;-67
2022/03/17 00:28:31;;;;;;;;;;;14.50;53.70;;;;;;5075679;28;19924;-67
2022/03/17 00:30:58;;;;;;;;;;;14.60;53.70;;;;;;5093600;28;19997;-67
2022/03/17 00:33:24;;;;;;;;;;;14.60;53.70;;;;;;5093405;28;19928;-67
2022/03/17 00:35:51;;;;;;;;;;;14.50;53.70;;;;;;5093534;28;19930;-67
2022/03/17 00:38:18;;;;;;;;;;;14.50;53.70;;;;;;5093571;28;19930;-68
2022/03/17 00:40:46;;;;;;;;;;;14.50;53.70;;;;;;5093572;28;20386;-67
2022/03/17 00:43:13;;;;;;;;;;;14.50;53.70;;;;;;5093323;28;20415;-67
2022/03/17 00:45:40;;;;;;;;;;;14.50;53.70;;;;;;5093360;28;19924;-68
2022/03/17 00:48:07;;;;;;;;;;;14.50;53.70;;;;;;5093270;28;19946;-67
2022/03/17 00:50:34;;;;;;;;;;;14.50;53.70;;;;;;5075449;28;20010;-68
2022/03/17 00:53:00;;;;;;;;;;;14.40;53.70;;;;;;5075196;28;19930;-67
2022/03/17 00:55:27;;;;;;;;;;;14.40;53.70;;;;;;5093168;28;20414;-68
2022/03/17 00:57:55;;;;;;;;;;;14.40;53.70;;;;;;5093140;28;20296;-67
2022/03/17 01:00:21;;;;;;;;;;;14.40;53.70;;;;;;5075106;28;19931;-67
2022/03/17 01:02:49;;;;;;;;;;;14.40;53.70;;;;;;5074840;28;20335;-68
2022/03/17 01:05:15;;;;;;;;;;;14.40;53.70;;;;;;5093036;28;20296;-67
2022/03/17 01:07:42;;;;;;;;;;;14.40;53.70;;;;;;5074989;28;19924;-69
2022/03/17 01:10:10;;;;;;;;;;;14.40;53.70;;;;;;5074202;28;19969;-67
2022/03/17 01:12:36;;;;;;;;;;;14.40;53.70;;;;;;5074497;28;19939;-68
2022/03/17 01:15:04;;;;;;;;;;;14.40;53.80;;;;;;5074855;28;19924;-67
2022/03/17 01:17:31;;;;;;;;;;;14.40;53.70;;;;;;5074884;28;19924;-67
2022/03/17 01:19:58;;;;;;;;;;;14.30;53.70;;;;;;5092820;28;19924;-67
2022/03/17 01:22:25;;;;;;;;;;;14.30;53.70;;;;;;5092613;28;19957;-67
2022/03/17 01:24:52;;;;;;;;;;;14.30;53.70;;;;;;5092770;28;19924;-68
2022/03/17 01:27:20;;;;;;;;;;;14.30;53.70;;;;;;5092923;28;20342;-68
2022/03/17 01:29:47;;;;;;;;;;;14.40;53.80;;;;;;5092539;28;20452;-67
2022/03/17 01:32:15;;;;;;;;;;;14.30;53.70;;;;;;5074558;28;19928;-68
2022/03/17 01:34:41;;;;;;;;;;;14.30;53.70;;;;;;5092649;28;20287;-67
2022/03/17 01:37:08;;;;;;;;;;;14.30;53.70;;;;;;5074735;28;20315;-68
2022/03/17 01:39:34;;;;;;;;;;;14.30;53.70;;;;;;5074690;28;20152;-67
2022/03/17 01:42:03;;;;;;;;;;;14.30;53.80;;;;;;5092534;28;19954;-68
2022/03/17 01:44:29;;;;;;;;;;;14.30;53.80;;;;;;5092132;28;19925;-68
2022/03/17 01:49:42;;;;;;;;;;;14.30;53.80;;;;;;5074777;28;19920;-67
2022/03/17 01:52:08;;;;;;;;;;;14.30;53.80;;;;;;5092302;28;19932;-67
2022/03/17 01:54:35;;;;;;;;;;;14.30;53.80;;;;;;5092090;28;19928;-67
2022/03/17 01:57:01;;;;;;;;;;;15.30;54.40;;;;;;5092672;28;19925;-68
2022/03/17 01:59:29;;;;;;;;;;;14.20;53.80;;;;;;5092446;28;19928;-67
2022/03/17 02:01:55;;;;;;;;;;;14.30;53.80;;;;;;5092777;28;19932;-67
2022/03/17 02:04:22;;;;;;;;;;;14.30;53.80;;;;;;5073837;28;20429;-68
2022/03/17 02:06:50;;;;;;;;;;;14.30;53.80;;;;;;5092500;28;19931;-68
2022/03/17 02:09:17;;;;;;;;;;;14.30;53.80;;;;;;5092357;28;20019;-67
2022/03/17 02:14:28;;;;;;;;;;;14.30;53.80;;;;;;5092112;28;19924;-67
2022/03/17 02:16:54;;;;;;;;;;;14.30;53.80;;;;;;5074246;28;20124;-67
2022/03/17 02:19:21;;;;;;;;;;;14.50;53.90;;;;;;5092174;28;19925;-67
2022/03/17 02:21:49;;;;;;;;;;;14.30;53.80;;;;;;5093256;28;19931;-68
2022/03/17 02:27:01;;;;;;;;;;;14.30;53.80;;;;;;5078360;28;20015;-67
2022/03/17 02:29:30;;;;;;;;;;;14.30;53.80;;;;;;5096444;28;19928;-67
2022/03/17 02:31:57;;;;;;;;;;;14.20;53.80;;;;;;5078001;28;20277;-68
2022/03/17 02:34:23;;;;;;;;;;;14.20;53.70;;;;;;5096047;28;20296;-67
2022/03/17 02:36:50;;;;;;;;;;;14.20;53.70;;;;;;5095746;28;19931;-68
2022/03/17 02:39:18;;;;;;;;;;;14.30;53.80;;;;;;5078123;28;19931;-68
2022/03/17 02:41:45;;;;;;;;;;;14.20;53.70;;;;;;5095767;28;19928;-68
2022/03/17 02:44:12;;;;;;;;;;;14.30;53.70;;;;;;5077726;28;19924;-67
2022/03/17 02:46:38;;;;;;;;;;;14.30;53.80;;;;;;5077621;28;19924;-67
2022/03/17 02:49:05;;;;;;;;;;;14.30;53.80;;;;;;5095608;28;20315;-68
2022/03/17 02:51:31;;;;;;;;;;;14.30;53.80;;;;;;5095572;28;19923;-67
2022/03/17 02:53:58;;;;;;;;;;;14.30;53.80;;;;;;5095481;28;19924;-67
2022/03/17 02:56:26;;;;;;;;;;;14.20;53.70;;;;;;5077718;28;20377;-67
2022/03/17 02:58:53;;;;;;;;;;;14.30;53.80;;;;;;5077580;28;19924;-67
2022/03/17 03:01:19;;;;;;;;;;;14.20;53.70;;;;;;5077097;28;19930;-68
2022/03/17 03:03:46;;;;;;;;;;;14.30;53.80;;;;;;5095062;28;20365;-67
2022/03/17 03:06:14;;;;;;;;;;;14.20;53.70;;;;;;5095142;28;20385;-67
2022/03/17 03:08:40;;;;;;;;;;;14.20;53.70;;;;;;5095477;28;19924;-67
2022/03/17 03:11:07;;;;;;;;;;;14.30;53.80;;;;;;5095046;28;19932;-67
2022/03/17 03:13:36;;;;;;;;;;;14.20;53.70;;;;;;5076901;28;19924;-68
2022/03/17 03:16:03;;;;;;;;;;;14.30;53.80;;;;;;5077354;28;20406;-67
2022/03/17 03:18:30;;;;;;;;;;;14.20;54.30;;;;;;5077326;28;20385;-68
2022/03/17 03:20:56;;;;;;;;;;;14.20;53.70;;;;;;5094941;28;19924;-67
2022/03/17 03:23:23;;;;;;;;;;;14.30;53.80;;;;;;5076674;28;19924;-67
2022/03/17 03:25:49;;;;;;;;;;;14.20;53.70;;;;;;5095240;28;19931;-67
2022/03/17 03:28:16;;;;;;;;;;;14.30;53.80;;;;;;5094858;28;19928;-68
2022/03/17 03:30:44;;;;;;;;;;;14.40;53.80;;;;;;5094979;28;19924;-68
2022/03/17 03:33:10;;;;;;;;;;;14.30;53.80;;;;;;5093557;28;19924;-67
2022/03/17 03:38:21;;;;;;;;;;;14.30;53.80;;;;;;5076758;28;19920;-67
2022/03/17 03:40:48;;;;;;;;;;;14.30;53.80;;;;;;5094667;28;20013;-67
2022/03/17 03:43:14;;;;;;;;;;;14.30;53.80;;;;;;5094298;28;19924;-69
2022/03/17 03:45:41;;;;;;;;;;;14.30;53.80;;;;;;5077021;28;19928;-68
2022/03/17 03:48:09;;;;;;;;;;;14.30;53.80;;;;;;5094586;28;19930;-67
2022/03/17 03:50:37;;;;;;;;;;;14.50;53.90;;;;;;5094432;28;20015;-69
2022/03/17 03:53:03;;;;;;;;;;;14.30;53.70;;;;;;5094292;28;19930;-69
2022/03/17 03:55:30;;;;;;;;;;;14.30;53.70;;;;;;5094618;28;19924;-70
2022/03/17 03:57:58;;;;;;;;;;;14.30;53.70;;;;;;5076471;28;19930;-69
2022/03/17 04:00:33;;;;;;;;;;;14.30;53.70;;;;;;5094517;28;19961;-68
2022/03/17 04:03:00;;;;;;;;;;;14.30;53.70;;;;;;5093754;28;19928;-69
2022/03/17 04:05:28;;;;;;;;;;;14.30;53.70;;;;;;5076269;28;20003;-69
2022/03/17 04:07:56;;;;;;;;;;;14.30;53.70;;;;;;5076436;28;20380;-67
2022/03/17 04:10:23;;;;;;;;;;;14.30;53.70;;;;;;5076075;28;20416;-69
2022/03/17 04:12:50;;;;;;;;;;;14.30;53.70;;;;;;5094095;28;20269;-69
2022/03/17 04:15:16;;;;;;;;;;;14.40;53.70;;;;;;5093904;28;19924;-69
2022/03/17 04:17:43;;;;;;;;;;;14.30;53.70;;;;;;5094109;28;19930;-69
2022/03/17 04:20:10;;;;;;;;;;;14.40;53.70;;;;;;5075570;28;19930;-69
2022/03/17 04:22:38;;;;;;;;;;;14.40;53.70;;;;;;5093471;28;19924;-70
2022/03/17 04:25:05;;;;;;;;;;;14.40;53.70;;;;;;5076003;28;19975;-69
2022/03/17 04:27:32;;;;;;;;;;;14.40;53.70;;;;;;5075659;28;20305;-69
2022/03/17 04:29:58;;;;;;;;;;;14.40;53.70;;;;;;5093579;28;20299;-69
2022/03/17 04:32:25;;;;;;;;;;;14.40;53.70;;;;;;5093480;28;20308;-69
2022/03/17 04:34:52;;;;;;;;;;;14.40;53.60;;;;;;5075270;28;19944;-68
2022/03/17 04:37:19;;;;;;;;;;;14.40;53.60;;;;;;5075691;28;20006;-69
2022/03/17 04:39:46;;;;;;;;;;;14.50;53.60;;;;;;5075376;28;19978;-69
2022/03/17 04:42:13;;;;;;;;;;;14.50;53.70;;;;;;5093345;28;19946;-69
2022/03/17 04:44:40;;;;;;;;;;;14.50;53.60;;;;;;5093219;28;19924;-68
2022/03/17 04:47:07;;;;;;;;;;;14.50;53.60;;;;;;5093687;28;19931;-69
2022/03/17 04:49:33;;;;;;;;;;;14.50;53.60;;;;;;5093621;28;19973;-69
2022/03/17 04:52:00;;;;;;;;;;;14.50;53.60;;;;;;5075436;28;19979;-68
2022/03/17 04:54:26;;;;;;;;;;;14.50;53.60;;;;;;5074970;28;19930;-69
2022/03/17 04:56:54;;;;;;;;;;;14.50;53.50;;;;;;5075434;28;19999;-69
2022/03/17 04:59:21;;;;;;;;;;;14.50;53.50;;;;;;5093494;28;19930;-69
2022/03/17 05:01:48;;;;;;;;;;;14.50;53.50;;;;;;5074990;28;19969;-69
2022/03/17 05:04:14;;;;;;;;;;;14.50;53.50;;;;;;5092524;28;20380;-69
2022/03/17 05:06:41;;;;;;;;;;;14.60;53.50;;;;;;5075191;28;19924;-69
2022/03/17 05:09:08;;;;;;;;;;;14.60;53.50;;;;;;5074853;28;19924;-69
2022/03/17 05:11:34;;;;;;;;;;;14.60;53.50;;;;;;5075044;28;20324;-68
2022/03/17 05:14:03;;;;;;;;;;;14.60;53.50;;;;;;5074857;28;20288;-69
2022/03/17 05:16:30;;;;;;;;;;;14.60;53.50;;;;;;5075303;28;20369;-69
2022/03/17 05:18:57;;;;;;;;;;;14.60;53.50;;;;;;5075275;28;20566;-69
2022/03/17 05:21:25;;;;;;;;;;;14.60;53.40;;;;;;5092793;28;19928;-69
2022/03/17 05:23:51;;;;;;;;;;;14.60;53.40;;;;;;5074722;28;19924;-69
2022/03/17 05:26:19;;;;;;;;;;;14.60;53.40;;;;;;5092837;28;19924;-69
2022/03/17 05:28:45;;;;;;;;;;;14.60;53.40;;;;;;5092964;28;20024;-69
2022/03/17 05:31:13;;;;;;;;;;;14.70;53.50;;;;;;5092503;28;19924;-69
2022/03/17 05:33:40;;;;;;;;;;;14.60;53.50;;;;;;5074628;28;19931;-69
2022/03/17 05:36:09;;;;;;;;;;;14.60;53.40;;;;;;5092923;28;19934;-69
2022/03/17 05:38:35;;;;;;;;;;;14.60;53.40;;;;;;5092514;28;20391;-69
2022/03/17 05:41:03;;;;;;;;;;;14.60;53.40;;;;;;5092249;28;20410;-69
2022/03/17 05:43:29;;;;;;;;;;;14.60;53.40;;;;;;5092565;28;19977;-68
2022/03/17 05:45:56;;;;;;;;;;;14.60;53.40;;;;;;5092627;28;19934;-69
2022/03/17 05:48:24;;;;;;;;;;;14.60;53.40;;;;;;5092487;28;19930;-69
2022/03/17 05:50:50;;;;;;;;;;;14.60;53.40;;;;;;5074517;28;19925;-69
2022/03/17 05:53:17;;;;;;;;;;;14.60;53.40;;;;;;5074483;28;19924;-69
2022/03/17 05:55:44;;;;;;;;;;;17.70;55.20;;;;;;5092701;28;19924;-68
2022/03/17 05:58:10;;;;;;;;;;;14.70;53.40;;;;;;5095804;28;20410;-70
2022/03/17 06:00:37;;;;;;;;;;;14.60;53.40;;;;;;5078544;28;19931;-69
2022/03/17 06:03:04;;;;;;;;;;;14.70;53.40;;;;;;5078442;28;19935;-69
2022/03/17 06:05:32;;;;;;;;;;;14.70;53.40;;;;;;5096563;28;19928;-69
2022/03/17 06:08:00;;;;;;;;;;;14.80;53.40;;;;;;5078571;28;19928;-69
2022/03/17 06:10:27;;;;;;;;;;;14.70;53.40;;;;;;5095871;28;19928;-69
2022/03/17 06:12:54;;;;;;;;;;;14.70;53.40;;;;;;5096118;28;19925;-68
2022/03/17 06:15:21;;;;;;;;;;;14.70;53.40;;;;;;5096722;28;19924;-69
2022/03/17 06:17:48;;;;;;;;;;;14.70;53.40;;;;;;5078520;28;19932;-70
2022/03/17 06:20:15;;;;;;;;;;;14.70;53.40;;;;;;5078163;28;19947;-69
2022/03/17 06:22:44;;;;;;;;;;;14.70;53.40;;;;;;5078066;28;20007;-69
2022/03/17 06:25:11;;;;;;;;;;;14.70;53.40;;;;;;5078314;28;19924;-69
2022/03/17 06:27:37;;;;;;;;;;;14.70;53.40;;;;;;5096189;28;19924;-69
2022/03/17 06:30:04;;;;;;;;;;;14.70;53.40;;;;;;5096009;28;19932;-69
2022/03/17 06:32:31;;;;;;;;;;;14.70;53.30;;;;;;5077849;28;19924;-69
2022/03/17 06:34:57;;;;;;;;;;;14.70;53.30;;;;;;5077893;28;19935;-69
2022/03/17 06:37:24;;;;;;;;;;;14.70;53.30;;;;;;5095846;28;19931;-69
2022/03/17 06:39:53;;;;;;;;;;;14.70;53.30;;;;;;5095900;28;20410;-69
2022/03/17 06:42:20;;;;;;;;;;;14.70;53.40;;;;;;5095813;28;19924;-69
2022/03/17 06:44:46;;;;;;;;;;;14.70;53.30;;;;;;5095707;28;20392;-70
2022/03/17 06:47:13;;;;;;;;;;;14.70;53.30;;;;;;5078181;28;20026;-67
2022/03/17 06:49:39;;;;;;;;;;;14.70;53.30;;;;;;5095512;28;19946;-69
2022/03/17 06:52:06;;;;;;;;;;;14.70;53.30;;;;;;5095367;28;20297;-69
2022/03/17 06:54:33;;;;;;;;;;;14.70;53.30;;;;;;5077506;28;19932;-70
2022/03/17 06:57:00;;;;;;;;;;;14.70;53.30;;;;;;5077889;28;19924;-68
2022/03/17 06:59:27;;;;;;;;;;;14.80;53.40;;;;;;5095753;28;19930;-69
2022/03/17 07:01:53;;;;;;;;;;;14.80;53.30;;;;;;5095225;28;19924;-69
2022/03/17 07:04:20;;;;;;;;;;;14.70;53.30;;;;;;5077101;28;19924;-69
2022/03/17 07:06:47;;;;;;;;;;;14.70;53.30;;;;;;5077563;28;19928;-70
2022/03/17 07:09:15;;;;;;;;;;;14.80;53.40;;;;;;5076651;28;21144;-70
2022/03/17 07:11:42;;;;;;;;;;;14.80;53.30;;;;;;5095431;28;20316;-68
2022/03/17 07:14:10;;;;;;;;;;;14.80;53.30;;;;;;5095251;28;19924;-70
2022/03/17 07:16:37;;;;;;;;;;;14.80;53.30;;;;;;5094530;28;20392;-70
2022/03/17 07:19:03;;;;;;;;;;;14.80;53.30;;;;;;5095270;28;20304;-70
2022/03/17 07:21:30;;;;;;;;;;;14.80;53.30;;;;;;5076749;28;19924;-69
2022/03/17 07:23:57;;;;;;;;;;;14.80;53.60;;;;;;5077034;28;20009;-68
2022/03/17 07:26:23;;;;;;;;;;;14.80;54.00;;;;;;5077115;28;20011;-68
2022/03/17 07:28:50;;;;;;;;;;;14.90;54.20;;;;;;5076939;28;19931;-68
2022/03/17 07:31:18;;;;;;;;;;;15.00;54.30;;;;;;5076499;28;20392;-69
2022/03/17 07:33:45;;;;;;;;;;;15.00;54.20;;;;;;5076082;28;20281;-70
2022/03/17 07:36:11;;;;;;;;;;;15.10;54.20;;;;;;5076007;28;19928;-69
2022/03/17 07:38:38;;;;;;;;;;;15.20;54.10;;;;;;5076584;28;19924;-68
2022/03/17 07:41:05;;;;;;;;;;;15.20;54.10;;;;;;5094079;28;19924;-72
2022/03/17 07:43:31;;;;;;;;;;;15.30;53.90;;;;;;5092283;28;19924;-68
2022/03/17 07:45:58;;;;;;;;;;;15.40;53.80;;;;;;5093816;28;20011;-68
2022/03/17 07:48:25;;;;;;;;;;;15.40;53.80;;;;;;5076619;28;20291;-68
2022/03/17 07:50:52;;;;;;;;;;;15.50;53.60;;;;;;5094269;28;19930;-68
2022/03/17 07:53:19;;;;;;;;;;;15.40;53.40;;;;;;5094510;28;20380;-69
2022/03/17 07:55:45;;;;;;;;;;;15.50;53.40;;;;;;5093680;28;20392;-68
2022/03/17 07:58:12;;;;;;;;;;;15.50;53.30;;;;;;5076243;28;20335;-68
2022/03/17 08:00:39;;;;;;;;;;;15.50;53.20;;;;;;5093994;28;20296;-68
2022/03/17 08:03:06;;;;;;;;;;;15.50;53.20;;;;;;5093564;28;19924;-69
2022/03/17 08:05:33;;;;;;;;;;;15.50;53.10;;;;;;5076176;28;19924;-68
2022/03/17 08:08:02;;;;;;;;;;;15.50;53.10;;;;;;5076196;28;19925;-69
2022/03/17 08:10:29;;;;;;;;;;;15.50;53.10;;;;;;5094056;28;20404;-68
2022/03/17 08:12:55;;;;;;;;;;;15.60;53.10;;;;;;5076191;28;20289;-69
2022/03/17 08:15:23;;;;;;;;;;;15.60;53.10;;;;;;5075759;28;19924;-68
2022/03/17 08:17:49;;;;;;;;;;;15.60;53.00;;;;;;5075946;28;19985;-70
2022/03/17 08:20:16;;;;;;;;;;;15.60;53.00;;;;;;5093258;28;19950;-68
2022/03/17 08:22:44;;;;;;;;;;;15.60;52.90;;;;;;5075518;28;19925;-68
2022/03/17 08:25:10;;;;;;;;;;;15.60;52.90;;;;;;5075985;28;19975;-68
2022/03/17 08:27:37;;;;;;;;;;;15.70;52.90;;;;;;5075849;28;19924;-68
2022/03/17 08:30:05;;;;;;;;;;;15.70;52.80;;;;;;5093439;28;19930;-70
2022/03/17 08:32:31;;;;;;;;;;;15.70;52.80;;;;;;5075510;28;20021;-68
2022/03/17 08:34:58;;;;;;;;;;;15.70;52.70;;;;;;5075635;28;19954;-69
2022/03/17 08:37:25;;;;;;;;;;;15.70;52.70;;;;;;5093599;28;20017;-68
2022/03/17 08:39:52;;;;;;;;;;;15.70;52.70;;;;;;5075657;28;20395;-68
2022/03/17 08:42:19;;;;;;;;;;;15.70;52.70;;;;;;5093186;28;20265;-68
2022/03/17 08:44:46;;;;;;;;;;;15.70;52.70;;;;;;5075145;28;19938;-68
2022/03/17 08:49:57;;;;;;;;;;;15.80;52.70;;;;;;5075461;28;20381;-68
2022/03/17 08:52:23;;;;;;;;;;;15.80;52.60;;;;;;5062453;28;20377;-68
2022/03/17 08:54:50;;;;;;;;;;;15.90;52.60;;;;;;5092993;28;20399;-69
2022/03/17 08:57:18;;;;;;;;;;;15.80;52.60;;;;;;5093342;28;19924;-70
2022/03/17 08:59:44;;;;;;;;;;;15.90;52.60;;;;;;5093387;28;20015;-68
2022/03/17 09:02:11;;;;;;;;;;;15.90;52.60;;;;;;5092623;28;20402;-68
2022/03/17 09:04:38;;;;;;;;;;;15.90;52.60;;;;;;5092649;28;19932;-66
2022/03/17 09:07:05;;;;;;;;;;;15.90;52.90;;;;;;5092816;28;19924;-68
2022/03/17 09:09:32;;;;;;;;;;;16.00;52.90;;;;;;5074836;28;20384;-68
2022/03/17 09:11:59;;;;;;;;;;;16.00;52.80;;;;;;5092248;28;20076;-69
2022/03/17 09:14:30;;;;;;;;;;;16.00;52.70;;;;;;5073714;28;19928;-68
2022/03/17 09:16:56;;;;;;;;;;;16.00;52.80;;;;;;5073183;28;19924;-68
2022/03/17 09:19:23;;;;;;;;;;;16.10;52.70;;;;;;5074399;28;19924;-68
2022/03/17 09:21:51;;;;;;;;;;;16.00;52.60;;;;;;5074301;28;19924;-68
2022/03/17 09:24:18;;;;;;;;;;;16.00;52.60;;;;;;5092387;28;20384;-69
2022/03/17 09:26:45;;;;;;;;;;;16.10;52.60;;;;;;5073881;28;20265;-68
2022/03/17 09:29:12;;;;;;;;;;;16.00;52.60;;;;;;5089732;28;20402;-68
2022/03/17 09:31:40;;;;;;;;;;;16.10;52.60;;;;;;5091631;28;19927;-68
2022/03/17 09:34:07;;;;;;;;;;;16.10;52.60;;;;;;5073650;28;19924;-68
2022/03/17 09:36:34;;;;;;;;;;;16.10;52.60;;;;;;5074342;28;20295;-68
2022/03/17 09:41:45;;;;;;;;;;;16.10;52.50;;;;;;5073403;28;19991;-68
2022/03/17 09:44:11;;;;;;;;;;;16.10;52.50;;;;;;5071143;28;20295;-68
2022/03/17 09:46:39;;;;;;;;;;;16.10;52.50;;;;;;5073696;28;19928;-69
2022/03/17 09:49:06;;;;;;;;;;;16.10;52.50;;;;;;5074280;28;20006;-68
2022/03/17 09:51:33;;;;;;;;;;;16.10;52.50;;;;;;5074829;28;19970;-69
2022/03/17 09:54:00;;;;;;;;;;;16.10;52.40;;;;;;5073728;28;19924;-68
2022/03/17 09:56:27;;;;;;;;;;;16.20;52.50;;;;;;5092672;28;19935;-67
2022/03/17 09:58:54;;;;;;;;;;;16.10;52.40;;;;;;5074065;28;19928;-68
2022/03/17 10:01:21;;;;;;;;;;;16.20;52.40;;;;;;5074299;28;20010;-67
2022/03/17 10:03:49;;;;;;;;;;;16.20;52.40;;;;;;5091588;28;19924;-67
2022/03/17 10:06:16;;;;;;;;;;;16.20;52.40;;;;;;5092093;28;19924;-67
2022/03/17 10:08:45;;;;;;;;;;;16.20;52.30;;;;;;5074359;28;19947;-67
2022/03/17 10:11:14;;;;;;;;;;;16.20;52.30;;;;;;5074321;28;20338;-67
2022/03/17 10:13:43;;;;;;;;;;;16.20;52.30;;;;;;5091485;28;20553;-68
2022/03/17 10:16:10;;;;;;;;;;;16.20;52.30;;;;;;5054387;28;19925;-67
2022/03/17 10:18:37;;;;;;;;;;;16.20;52.20;;;;;;5071872;28;19925;-69
2022/03/17 10:21:09;;;;;;;;;;;16.30;52.30;;;;;;5071948;28;19934;-67
2022/03/17 10:23:39;;;;;;;;;;;16.20;52.20;;;;;;5053726;28;19931;-67
2022/03/17 10:26:05;;;;;;;;;;;16.20;52.20;;;;;;5056008;28;20297;-68
2022/03/17 10:28:32;;;;;;;;;;;16.30;52.30;;;;;;5092348;28;19947;-67
2022/03/17 10:31:02;;;;;;;;;;;16.30;52.30;;;;;;5092226;28;19968;-67
2022/03/17 10:33:29;;;;;;;;;;;16.30;52.20;;;;;;5073890;28;19928;-67
2022/03/17 10:35:55;;;;;;;;;;;16.30;52.20;;;;;;5091878;28;20015;-67
2022/03/17 10:38:25;;;;;;;;;;;16.30;52.10;;;;;;5074159;28;19924;-67
2022/03/17 10:41:00;;;;;;;;;;;16.30;52.10;;;;;;5091642;28;19924;-67
2022/03/17 10:43:26;;;;;;;;;;;16.30;52.10;;;;;;5075577;28;19924;-67
2022/03/17 10:46:03;;;;;;;;;;;16.40;52.20;;;;;;5095734;28;20354;-67
2022/03/17 10:48:30;;;;;;;;;;;16.40;52.20;;;;;;5077792;28;19930;-68
2022/03/17 10:50:57;;;;;;;;;;;16.40;52.10;;;;;;5077459;28;19931;-68
2022/03/17 10:53:28;;;;;;;;;;;16.40;52.10;;;;;;5076909;28;20398;-69
2022/03/17 10:55:56;;;;;;;;;;;16.40;52.00;;;;;;5091893;28;19993;-71
2022/03/17 10:58:22;;;;;;;;;;;16.40;52.00;;;;;;5077169;28;19924;-70
2022/03/17 11:00:49;;;;;;;;;;;16.40;52.00;;;;;;5077555;28;19967;-71
2022/03/17 11:03:16;;;;;;;;;;;16.40;52.00;;;;;;5076618;28;20023;-69
2022/03/17 11:05:43;;;;;;;;;;;16.50;52.00;;;;;;5095300;28;20006;-70
2022/03/17 11:08:10;;;;;;;;;;;16.50;52.00;;;;;;5094990;28;19924;-71
2022/03/17 11:10:38;;;;;;;;;;;16.50;52.00;;;;;;5095521;28;19969;-71
2022/03/17 11:13:09;;;;;;;;;;;16.50;52.00;;;;;;5094689;28;19924;-71
2022/03/17 11:15:38;;;;;;;;;;;16.50;51.90;;;;;;5077313;28;19931;-70
2022/03/17 11:18:05;;;;;;;;;;;16.50;51.90;;;;;;5077144;28;19924;-71
2022/03/17 11:20:32;;;;;;;;;;;16.60;52.00;;;;;;5077533;28;20295;-71
2022/03/17 11:23:06;;;;;;;;;;;16.60;51.90;;;;;;5076220;28;19970;-70
2022/03/17 11:25:34;;;;;;;;;;;16.60;51.80;;;;;;5076745;28;20300;-71
2022/03/17 11:28:03;;;;;;;;;;;16.60;51.80;;;;;;5076058;28;19931;-71
2022/03/17 11:30:30;;;;;;;;;;;16.60;51.90;;;;;;5076355;28;19928;-71
2022/03/17 11:32:58;;;;;;;;;;;16.60;51.80;;;;;;5076396;28;19931;-71
2022/03/17 11:35:29;;;;;;;;;;;16.60;51.80;;;;;;5091880;28;20010;-71
2022/03/17 11:38:12;;;;;;;;;;;16.60;51.80;;;;;;5076369;28;20442;-71
2022/03/17 11:40:54;;;;;;;;;;;16.70;51.80;;;;;;5093963;28;20044;-70
2022/03/17 11:43:22;;;;;;;;;;;16.70;51.80;;;;;;5074377;28;19930;-69
2022/03/17 11:45:49;;;;;;;;;;;16.70;51.80;;;;;;5094223;28;19954;-69
2022/03/17 11:48:15;;;;;;;;;;;16.70;51.70;;;;;;5093993;28;20288;-68
2022/03/17 11:50:43;;;;;;;;;;;16.70;51.70;;;;;;5076150;28;19924;-71
2022/03/17 11:53:15;;;;;;;;;;;16.70;51.70;;;;;;5076238;28;19928;-70
2022/03/17 11:55:48;;;;;;;;;;;16.80;51.70;;;;;;5075274;28;19930;-71
2022/03/17 11:58:23;;;;;;;;;;;16.80;52.30;;;;;;5075905;28;19931;-71
2022/03/17 12:00:52;;;;;;;;;;;16.80;51.70;;;;;;5072902;28;20018;-70
2022/03/17 12:03:26;;;;;;;;;;;16.80;51.60;;;;;;5074473;28;19924;-71
2022/03/17 12:06:04;;;;;;;;;;;16.80;51.60;;;;;;5075809;28;19924;-70
2022/03/17 12:08:33;;;;;;;;;;;16.80;51.60;;;;;;5076160;28;19924;-72
2022/03/17 12:11:05;;;;;;;;;;;16.90;51.70;;;;;;5092471;28;19928;-71
2022/03/17 12:13:34;;;;;;;;;;;16.90;51.60;;;;;;5075212;28;19931;-69
2022/03/17 12:16:01;;;;;;;;;;;16.80;51.50;;;;;;5075588;28;19934;-71
2022/03/17 12:18:28;;;;;;;;;;;16.80;51.50;;;;;;5092572;28;19947;-70
2022/03/17 12:20:56;;;;;;;;;;;16.80;51.50;;;;;;5093424;28;19924;-70
2022/03/17 12:23:42;;;;;;;;;;;16.80;51.60;;;;;;5092697;28;20322;-70
2022/03/17 12:26:08;;;;;;;;;;;16.80;51.70;;;;;;5092609;28;19928;-69
2022/03/17 12:28:36;;;;;;;;;;;16.80;51.70;;;;;;5075344;28;19924;-68
2022/03/17 12:31:03;;;;;;;;;;;16.80;51.60;;;;;;5090395;28;19946;-69
2022/03/17 12:33:30;;;;;;;;;;;16.80;51.70;;;;;;5093076;28;20396;-69
2022/03/17 12:36:03;;;;;;;;;;;16.80;51.70;;;;;;5075190;28;19924;-68
2022/03/17 12:38:30;;;;;;;;;;;16.80;51.70;;;;;;5092857;28;19935;-69
2022/03/17 12:40:57;;;;;;;;;;;16.80;51.80;;;;;;5092137;28;19931;-67
2022/03/17 12:43:24;;;;;;;;;;;16.80;51.80;;;;;;5092822;28;19924;-69
2022/03/17 12:45:52;;;;;;;;;;;16.80;51.80;;;;;;5093334;28;20351;-69
2022/03/17 12:48:19;;;;;;;;;;;16.80;51.80;;;;;;5075114;28;20061;-68
2022/03/17 12:50:46;;;;;;;;;;;16.80;51.80;;;;;;5087466;28;19967;-69
2022/03/17 12:53:12;;;;;;;;;;;16.80;51.80;;;;;;5093171;28;19924;-69
2022/03/17 12:55:39;;;;;;;;;;;16.80;51.80;;;;;;5075166;28;19934;-69
2022/03/17 12:58:06;;;;;;;;;;;16.70;51.70;;;;;;5092894;28;19931;-69
2022/03/17 13:00:32;;;;;;;;;;;16.70;51.70;;;;;;5092059;28;19930;-69
2022/03/17 13:03:00;;;;;;;;;;;16.70;51.80;;;;;;5092378;28;19930;-69
2022/03/17 13:08:12;;;;;;;;;;;16.80;51.70;;;;;;5072881;28;20340;-70
2022/03/17 13:16:03;;;;;;;;;;;16.70;51.70;;;;;;5073267;28;20288;-70
2022/03/17 13:18:40;;;;;;;;;;;16.70;51.70;;;;;;5073885;28;19931;-71
2022/03/17 13:21:09;;;;;;;;;;;16.70;51.70;;;;;;5091674;28;20335;-68
2022/03/17 13:23:36;;;;;;;;;;;16.70;51.70;;;;;;5091066;28;20312;-69
2022/03/17 13:26:02;;;;;;;;;;;16.70;51.60;;;;;;5074408;28;19924;-68
2022/03/17 13:28:29;;;;;;;;;;;16.60;51.60;;;;;;5092478;28;19924;-68
2022/03/17 13:30:56;;;;;;;;;;;16.60;51.60;;;;;;5092514;28;19924;-68
2022/03/17 13:33:25;;;;;;;;;;;16.60;51.70;;;;;;5091511;28;19924;-67
2022/03/17 13:35:54;;;;;;;;;;;16.60;51.70;;;;;;5092799;28;19975;-69
2022/03/17 13:38:21;;;;;;;;;;;16.60;51.70;;;;;;5092603;28;19928;-68
2022/03/17 13:40:48;;;;;;;;;;;16.60;51.70;;;;;;5092690;28;19924;-68
2022/03/17 13:43:15;;;;;;;;;;;16.60;51.70;;;;;;5092157;28;19946;-70
2022/03/17 13:45:42;;;;;;;;;;;16.60;51.70;;;;;;5092298;28;19928;-70
2022/03/17 13:48:09;;;;;;;;;;;16.60;51.70;;;;;;5092337;28;19930;-69
2022/03/17 13:50:38;;;;;;;;;;;16.60;51.70;;;;;;5074478;28;19931;-70
2022/03/17 13:53:06;;;;;;;;;;;16.50;51.70;;;;;;5092411;28;19924;-70
2022/03/17 13:55:34;;;;;;;;;;;16.50;51.70;;;;;;5092207;28;20011;-70
2022/03/17 13:58:25;;;;;;;;;;;16.50;51.70;;;;;;5091785;28;20034;-70
2022/03/17 14:00:51;;;;;;;;;;;16.50;51.70;;;;;;5053906;28;19934;-70
2022/03/17 14:03:22;;;;;;;;;;;16.50;51.70;;;;;;5073895;28;19928;-70
2022/03/17 14:06:01;;;;;;;;;;;16.50;51.80;;;;;;5074388;28;19931;-70
2022/03/17 14:08:29;;;;;;;;;;;16.50;51.80;;;;;;5074256;28;19928;-70
2022/03/17 14:10:57;;;;;;;;;;;16.50;51.80;;;;;;5074031;28;20399;-70
2022/03/17 14:13:23;;;;;;;;;;;16.40;51.70;;;;;;5091919;28;19924;-70
2022/03/17 14:15:51;;;;;;;;;;;16.40;51.90;;;;;;5092309;28;19946;-70
2022/03/17 14:18:18;;;;;;;;;;;16.40;51.80;;;;;;5075031;28;20419;-70
2022/03/17 14:20:45;;;;;;;;;;;16.40;51.80;;;;;;5078226;28;19924;-70
2022/03/17 14:25:57;;;;;;;;;;;16.40;51.90;;;;;;5077890;28;19959;-70
2022/03/17 14:28:23;;;;;;;;;;;16.40;51.90;;;;;;5078123;28;19931;-70
2022/03/17 14:30:50;;;;;;;;;;;16.40;51.90;;;;;;5095433;28;19930;-70
2022/03/17 14:33:17;;;;;;;;;;;16.40;51.90;;;;;;5077564;28;19930;-70
2022/03/17 14:35:44;;;;;;;;;;;16.40;51.90;;;;;;5077617;28;19930;-69
2022/03/17 14:38:11;;;;;;;;;;;16.40;51.90;;;;;;5095340;28;19924;-70
2022/03/17 14:40:37;;;;;;;;;;;16.30;51.80;;;;;;5096021;28;19946;-68
2022/03/17 14:43:05;;;;;;;;;;;16.40;51.90;;;;;;5095561;28;19946;-68
2022/03/17 14:45:32;;;;;;;;;;;16.30;51.90;;;;;;5077402;28;19927;-69